createdAt,value
2018-02-27T00:01:11.881Z,1.40
2018-02-27T00:03:38.840Z,1.50
2018-02-27T00:06:05.782Z,1.50
2018-02-27T00:08:32.635Z,1.73
2018-02-27T00:10:59.600Z,1.60
2018-02-27T00:13:26.388Z,1.57
2018-02-27T00:15:53.273Z,1.70
2018-02-27T00:18:20.242Z,1.33
2018-02-27T00:20:47.176Z,1.50
2018-02-27T00:23:14.205Z,1.50
2018-02-27T00:25:41.098Z,1.43
2018-02-27T00:28:08.032Z,1.63
2018-02-27T00:30:34.700Z,1.40
2018-02-27T00:33:01.576Z,1.27
2018-02-27T00:35:28.365Z,1.50
2018-02-27T00:37:55.325Z,1.33
2018-02-27T00:40:22.274Z,0.97
2018-02-27T00:42:49.159Z,1.30
2018-02-27T00:45:16.171Z,1.37
2018-02-27T00:47:43.121Z,1.57
2018-02-27T00:50:09.866Z,1.50
2018-02-27T00:52:36.540Z,1.20
2018-02-27T00:55:03.382Z,1.10
2018-02-27T00:57:30.273Z,1.30
2018-02-27T00:59:57.120Z,1.13
2018-02-27T01:02:23.926Z,1.27
2018-02-27T01:04:50.673Z,1.20
2018-02-27T01:07:17.494Z,1.40
2018-02-27T01:09:43.828Z,1.07
2018-02-27T01:12:10.843Z,1.20
2018-02-27T01:14:37.195Z,1.23
2018-02-27T01:17:03.545Z,1.20
2018-02-27T01:19:30.409Z,1.30
2018-02-27T01:21:57.385Z,1.30
2018-02-27T01:24:24.335Z,1.50
2018-02-27T01:26:51.101Z,1.47
2018-02-27T01:29:17.824Z,1.20
2018-02-27T01:31:44.668Z,1.53
2018-02-27T01:34:11.515Z,1.63
2018-02-27T01:36:38.276Z,1.23
2018-02-27T01:39:05.560Z,1.20
2018-02-27T01:41:32.817Z,1.40
2018-02-27T01:43:59.171Z,1.30
2018-02-27T01:46:25.853Z,1.30
2018-02-27T01:48:52.604Z,1.50
2018-02-27T01:51:19.297Z,1.57
2018-02-27T01:53:46.267Z,1.30
2018-02-27T01:56:13.132Z,1.23
2018-02-27T01:58:39.901Z,1.33
2018-02-27T02:01:06.759Z,1.60
2018-02-27T02:03:34.383Z,1.20
2018-02-27T02:06:01.233Z,1.60
2018-02-27T02:08:27.592Z,1.43
2018-02-27T02:10:54.212Z,1.43
2018-02-27T02:13:27.612Z,1.17
2018-02-27T02:15:54.456Z,1.23
2018-02-27T02:18:21.203Z,1.40
2018-02-27T02:20:48.045Z,1.30
2018-02-27T02:23:14.820Z,1.50
2018-02-27T02:25:41.682Z,1.50
2018-02-27T02:28:08.704Z,1.50
2018-02-27T02:30:35.761Z,1.50
2018-02-27T02:33:02.528Z,1.50
2018-02-27T02:35:29.369Z,1.60
2018-02-27T02:37:56.313Z,1.20
2018-02-27T02:40:22.837Z,1.27
2018-02-27T02:42:49.708Z,1.30
2018-02-27T02:45:16.836Z,1.30
2018-02-27T02:47:43.729Z,1.43
2018-02-27T02:50:11.279Z,1.47
2018-02-27T02:52:38.213Z,1.33
2018-02-27T02:55:05.132Z,1.20
2018-02-27T02:57:31.924Z,1.60
2018-02-27T02:59:58.949Z,1.23
2018-02-27T03:02:26.128Z,1.40
2018-02-27T03:04:53.024Z,1.50
2018-02-27T03:07:19.930Z,1.30
2018-02-27T03:09:46.959Z,1.37
2018-02-27T03:12:13.736Z,1.50
2018-02-27T03:14:40.088Z,1.40
2018-02-27T03:17:07.562Z,1.30
2018-02-27T03:19:34.575Z,1.37
2018-02-27T03:22:01.404Z,1.33
2018-02-27T03:24:27.797Z,1.57
2018-02-27T03:26:54.654Z,1.80
2018-02-27T03:29:21.588Z,1.30
2018-02-27T03:31:49.255Z,1.40
2018-02-27T03:34:16.841Z,1.60
2018-02-27T03:36:43.350Z,1.20
2018-02-27T03:39:10.692Z,1.50
2018-02-27T03:41:37.185Z,1.30
2018-02-27T03:44:03.717Z,1.63
2018-02-27T03:46:30.102Z,1.20
2018-02-27T03:48:56.502Z,1.37
2018-02-27T03:51:22.937Z,1.50
2018-02-27T03:53:49.924Z,1.50
2018-02-27T03:56:16.874Z,1.47
2018-02-27T03:58:43.654Z,1.30
2018-02-27T04:01:11.077Z,1.60
2018-02-27T04:03:37.917Z,1.50
2018-02-27T04:06:04.998Z,1.30
2018-02-27T04:08:32.543Z,1.17
2018-02-27T04:10:59.601Z,1.20
2018-02-27T04:13:26.332Z,8.57
2018-02-27T04:15:53.261Z,3.20
2018-02-27T04:18:20.046Z,2.13
2018-02-27T04:20:47.473Z,68.57
2018-02-27T04:23:14.164Z,13.73
2018-02-27T04:28:10.899Z,154.40
2018-02-27T04:30:37.781Z,96.90
2018-02-27T04:33:04.613Z,88.07
2018-02-27T04:35:31.649Z,61.73
2018-02-27T04:37:58.665Z,119.37
2018-02-27T04:40:25.374Z,97.17
2018-02-27T04:42:52.117Z,381.67
2018-02-27T04:45:18.891Z,540.97
2018-02-27T04:47:46.504Z,83.97
2018-02-27T04:50:13.261Z,436.37
2018-02-27T04:52:40.147Z,150.47
2018-02-27T04:55:07.965Z,26.00
2018-02-27T04:57:34.869Z,193.80
2018-02-27T05:00:01.780Z,131.97
2018-02-27T05:02:29.497Z,139.87
2018-02-27T05:04:56.411Z,171.20
2018-02-27T05:07:23.272Z,41.37
2018-02-27T05:09:50.824Z,54.70
2018-02-27T05:12:17.645Z,51.23
2018-02-27T05:14:44.525Z,112.73
2018-02-27T05:17:10.883Z,53.17
2018-02-27T05:19:37.993Z,56.70
2018-02-27T05:22:04.787Z,23.10
2018-02-27T05:24:31.695Z,18.80
2018-02-27T05:26:58.560Z,42.03
2018-02-27T05:29:25.715Z,18.70
2018-02-27T05:31:52.971Z,3.13
2018-02-27T05:34:19.312Z,5.23
2018-02-27T05:36:46.033Z,1.80
2018-02-27T05:39:12.377Z,15.70
2018-02-27T05:41:39.311Z,28.17
2018-02-27T05:44:05.910Z,33.50
2018-02-27T05:46:32.265Z,17.50
2018-02-27T05:48:58.857Z,10.47
2018-02-27T05:51:25.685Z,9.57
2018-02-27T05:53:52.443Z,21.80
2018-02-27T05:56:18.778Z,48.13
2018-02-27T05:58:45.882Z,52.60
2018-02-27T06:01:12.371Z,96.30
2018-02-27T06:03:39.309Z,21.83
2018-02-27T06:06:05.677Z,126.80
2018-02-27T06:08:32.985Z,113.90
2018-02-27T06:10:59.544Z,82.17
2018-02-27T06:13:25.981Z,76.47
2018-02-27T06:15:52.316Z,47.27
2018-02-27T06:18:18.872Z,34.33
2018-02-27T06:20:45.633Z,63.03
2018-02-27T06:23:11.993Z,27.60
2018-02-27T06:25:39.530Z,5.37
2018-02-27T06:28:05.911Z,23.63
2018-02-27T06:30:32.251Z,8.27
2018-02-27T06:32:58.695Z,4.73
2018-02-27T06:35:25.037Z,4.17
2018-02-27T06:37:51.374Z,9.87
2018-02-27T06:40:18.178Z,3.80
2018-02-27T06:42:45.913Z,37.03
2018-02-27T06:45:12.260Z,9.07
2018-02-27T06:47:39.034Z,58.40
2018-02-27T06:50:06.125Z,8.60
2018-02-27T06:52:32.985Z,6.47
2018-02-27T06:54:59.528Z,31.17
2018-02-27T06:57:26.588Z,43.30
2018-02-27T06:59:52.947Z,49.33
2018-02-27T07:02:19.493Z,40.13
2018-02-27T07:04:46.004Z,147.63
2018-02-27T07:07:12.343Z,113.70
2018-02-27T07:09:38.683Z,299.93
2018-02-27T07:12:05.148Z,164.47
2018-02-27T07:14:31.496Z,282.57
2018-02-27T07:16:58.600Z,169.87
2018-02-27T07:19:25.304Z,137.97
2018-02-27T07:21:52.618Z,20.07
2018-02-27T07:24:18.981Z,4.33
2018-02-27T07:26:45.515Z,48.93
2018-02-27T07:29:11.909Z,8.80
2018-02-27T07:31:38.874Z,5.63
2018-02-27T07:34:05.764Z,8.13
2018-02-27T07:36:33.493Z,3.00
2018-02-27T07:39:00.447Z,4.40
2018-02-27T07:41:27.281Z,2.37
2018-02-27T07:43:54.144Z,4.70
2018-02-27T07:46:20.986Z,2.13
2018-02-27T07:48:47.715Z,1.90
2018-02-27T07:51:14.864Z,2.10
2018-02-27T07:53:41.540Z,1.90
2018-02-27T07:56:09.092Z,2.03
2018-02-27T07:58:35.975Z,2.20
2018-02-27T08:01:03.545Z,2.13
2018-02-27T08:03:30.453Z,2.17
2018-02-27T08:05:57.322Z,1.90
2018-02-27T08:08:24.228Z,2.00
2018-02-27T08:10:51.240Z,2.33
2018-02-27T08:13:18.173Z,1.80
2018-02-27T08:15:45.036Z,2.03
2018-02-27T08:18:11.377Z,2.10
2018-02-27T08:20:37.725Z,2.00
2018-02-27T08:23:05.181Z,2.13
2018-02-27T08:25:32.494Z,2.00
2018-02-27T08:27:59.358Z,2.10
2018-02-27T08:30:25.743Z,2.07
2018-02-27T08:32:53.030Z,2.10
2018-02-27T08:35:19.744Z,2.10
2018-02-27T08:37:47.178Z,1.70
2018-02-27T08:40:13.783Z,1.93
2018-02-27T08:42:40.133Z,1.70
2018-02-27T08:45:06.684Z,2.50
2018-02-27T08:47:33.065Z,1.83
2018-02-27T08:49:59.900Z,2.07
2018-02-27T08:52:27.330Z,2.00
2018-02-27T08:54:53.718Z,2.00
2018-02-27T08:57:20.077Z,1.60
2018-02-27T08:59:46.621Z,1.60
2018-02-27T09:02:13.200Z,1.77
2018-02-27T09:04:39.550Z,1.60
2018-02-27T09:07:06.091Z,1.70
2018-02-27T09:09:33.180Z,1.33
2018-02-27T09:11:59.532Z,1.57
2018-02-27T09:14:26.499Z,1.30
2018-02-27T09:16:52.849Z,3.37
2018-02-27T09:19:19.272Z,12.37
2018-02-27T09:21:45.688Z,17.97
2018-02-27T09:24:12.230Z,55.90
2018-02-27T09:26:38.581Z,97.73
2018-02-27T09:29:05.084Z,31.80
2018-02-27T09:31:31.456Z,192.07
2018-02-27T09:33:58.025Z,404.23
2018-02-27T09:36:24.546Z,116.87
2018-02-27T09:38:50.935Z,90.37
2018-02-27T09:41:18.044Z,432.80
2018-02-27T09:43:44.515Z,95.80
2018-02-27T09:46:11.741Z,314.17
2018-02-27T09:48:38.121Z,285.10
2018-02-27T09:51:04.669Z,491.13
2018-02-27T09:53:31.875Z,269.00
2018-02-27T09:55:58.221Z,312.17
2018-02-27T09:58:25.152Z,39.53
2018-02-27T10:00:51.499Z,72.93
2018-02-27T10:03:17.845Z,19.27
2018-02-27T10:05:44.349Z,209.83
2018-02-27T10:08:10.844Z,258.90
2018-02-27T10:10:37.193Z,3.40
2018-02-27T10:13:04.405Z,11.77
2018-02-27T10:15:30.870Z,13.33
2018-02-27T10:17:57.410Z,1.90
2018-02-27T10:20:24.440Z,1.63
2018-02-27T10:22:51.483Z,17.30
2018-02-27T10:25:18.270Z,1.97
2018-02-27T10:27:45.379Z,25.30
2018-02-27T10:30:11.717Z,1.20
2018-02-27T10:32:38.586Z,44.20
2018-02-27T10:35:04.987Z,3.70
2018-02-27T10:37:31.999Z,147.97
2018-02-27T10:39:59.125Z,76.07
2018-02-27T10:42:25.566Z,95.57
2018-02-27T10:44:52.110Z,92.67
2018-02-27T10:47:18.449Z,164.10
2018-02-27T10:49:44.790Z,267.53
2018-02-27T10:52:11.238Z,145.60
2018-02-27T10:54:38.713Z,203.30
2018-02-27T10:57:06.157Z,161.13
2018-02-27T10:59:32.717Z,187.73
2018-02-27T11:02:03.408Z,46.53
2018-02-27T11:04:30.156Z,89.40
2018-02-27T11:06:56.494Z,51.23
2018-02-27T11:09:22.863Z,26.53
2018-02-27T11:11:49.417Z,28.63
2018-02-27T11:14:16.480Z,5.97
2018-02-27T11:16:43.184Z,3.17
2018-02-27T11:19:10.252Z,6.47
2018-02-27T11:21:36.598Z,7.47
2018-02-27T11:24:03.722Z,1.60
2018-02-27T11:26:30.255Z,1.67
2018-02-27T11:28:57.361Z,1.77
2018-02-27T11:31:23.706Z,1.97
2018-02-27T11:33:50.833Z,1.30
2018-02-27T11:36:18.487Z,3.70
2018-02-27T11:38:46.167Z,2.70
2018-02-27T11:41:14.014Z,1.40
2018-02-27T11:43:40.768Z,5.40
2018-02-27T11:46:07.607Z,12.07
2018-02-27T11:48:34.266Z,61.33
2018-02-27T11:51:01.109Z,69.13
2018-02-27T11:53:28.259Z,14.77
2018-02-27T11:55:55.618Z,69.13
2018-02-27T11:58:22.380Z,138.43
2018-02-27T12:00:49.204Z,182.03
2018-02-27T12:03:16.044Z,134.50
2018-02-27T12:05:43.392Z,835.20
2018-02-27T12:08:10.181Z,249.83
2018-02-27T12:10:37.141Z,300.20
2018-02-27T12:13:04.900Z,56.27
2018-02-27T12:15:31.240Z,173.93
2018-02-27T12:17:58.795Z,259.63
2018-02-27T12:20:25.724Z,266.33
2018-02-27T12:22:52.638Z,126.50
2018-02-27T12:25:19.488Z,179.30
2018-02-27T12:27:46.288Z,34.47
2018-02-27T12:30:13.307Z,66.50
2018-02-27T12:32:40.175Z,163.17
2018-02-27T12:35:07.029Z,145.07
2018-02-27T12:37:34.580Z,10.70
2018-02-27T12:40:00.928Z,73.17
2018-02-27T12:42:27.973Z,20.87
2018-02-27T12:44:55.127Z,2.00
2018-02-27T12:47:22.073Z,16.37
2018-02-27T12:49:49.024Z,36.57
2018-02-27T12:52:15.838Z,36.07
2018-02-27T12:54:42.641Z,84.93
2018-02-27T12:57:10.222Z,65.83
2018-02-27T12:59:37.840Z,27.80
2018-02-27T13:02:04.629Z,110.93
2018-02-27T13:04:32.446Z,248.43
2018-02-27T13:06:59.343Z,721.37
2018-02-27T13:09:26.228Z,208.27
2018-02-27T13:11:52.762Z,365.17
2018-02-27T13:14:19.658Z,263.43
2018-02-27T13:16:46.158Z,535.40
2018-02-27T13:19:12.889Z,391.43
2018-02-27T13:21:39.884Z,426.60
2018-02-27T13:24:06.309Z,653.27
2018-02-27T13:26:32.681Z,586.10
2018-02-27T13:28:59.516Z,284.27
2018-02-27T13:31:25.880Z,299.93
2018-02-27T13:33:52.259Z,146.50
2018-02-27T13:36:18.829Z,185.53
2018-02-27T13:38:45.194Z,116.00
2018-02-27T13:41:12.323Z,36.13
2018-02-27T13:43:38.668Z,129.60
2018-02-27T13:46:04.993Z,18.13
2018-02-27T13:48:31.568Z,327.57
2018-02-27T13:50:58.132Z,7.70
2018-02-27T13:53:24.476Z,92.30
2018-02-27T13:55:51.060Z,438.80
2018-02-27T13:58:17.624Z,173.57
2018-02-27T14:00:44.128Z,480.37
2018-02-27T14:03:10.585Z,132.07
2018-02-27T14:05:36.954Z,173.50
2018-02-27T14:08:04.022Z,272.27
2018-02-27T14:10:30.506Z,396.70
2018-02-27T14:12:56.906Z,436.47
2018-02-27T14:15:23.412Z,493.93
2018-02-27T14:17:50.626Z,591.20
2018-02-27T14:20:16.984Z,588.67
2018-02-27T14:22:44.042Z,686.93
2018-02-27T14:25:10.402Z,721.23
2018-02-27T14:27:37.505Z,645.20
2018-02-27T14:30:04.146Z,820.97
2018-02-27T14:32:30.575Z,951.53
2018-02-27T14:34:56.904Z,890.57
2018-02-27T14:37:23.419Z,928.57
2018-02-27T14:39:50.527Z,980.33
2018-02-27T14:42:16.910Z,719.23
2018-02-27T14:44:44.116Z,995.73
2018-02-27T14:47:10.759Z,999.90
2018-02-27T14:49:37.461Z,999.90
2018-02-27T14:52:03.837Z,929.77
2018-02-27T14:54:30.165Z,872.00
2018-02-27T14:56:56.949Z,804.40
2018-02-27T14:59:23.298Z,779.70
2018-02-27T15:01:50.681Z,921.53
2018-02-27T15:04:17.905Z,999.90
2018-02-27T15:06:44.266Z,999.90
2018-02-27T15:09:11.345Z,950.50
2018-02-27T15:11:38.019Z,597.33
2018-02-27T15:14:04.398Z,362.93
2018-02-27T15:16:31.494Z,691.10
2018-02-27T15:18:57.969Z,475.40
2018-02-27T15:21:24.608Z,438.40
2018-02-27T15:23:50.986Z,86.10
2018-02-27T15:26:17.475Z,321.73
2018-02-27T15:28:43.816Z,414.47
2018-02-27T15:31:10.532Z,474.27
2018-02-27T15:33:37.112Z,447.40
2018-02-27T15:36:03.489Z,618.43
2018-02-27T15:38:30.587Z,300.50
2018-02-27T15:40:57.136Z,750.30
2018-02-27T15:43:23.718Z,576.90
2018-02-27T15:45:50.803Z,852.67
2018-02-27T15:48:17.677Z,718.03
2018-02-27T15:50:44.048Z,719.13
2018-02-27T15:53:11.198Z,378.00
2018-02-27T15:55:37.917Z,518.57
2018-02-27T15:58:04.297Z,849.60
2018-02-27T16:00:31.418Z,435.97
2018-02-27T16:02:58.251Z,990.87
2018-02-27T16:05:24.597Z,885.60
2018-02-27T16:07:51.655Z,841.20
2018-02-27T16:10:18.524Z,981.17
2018-02-27T16:12:45.990Z,432.47
2018-02-27T16:15:13.577Z,915.17
2018-02-27T16:17:40.399Z,551.37
2018-02-27T16:20:07.517Z,421.67
2018-02-27T16:22:34.468Z,471.73
2018-02-27T16:25:01.470Z,398.23
2018-02-27T16:27:29.152Z,240.23
2018-02-27T16:29:55.976Z,155.17
2018-02-27T16:32:23.246Z,333.10
2018-02-27T16:34:50.074Z,220.00
2018-02-27T16:37:17.173Z,229.70
2018-02-27T16:39:44.185Z,166.57
2018-02-27T16:42:11.497Z,69.23
2018-02-27T16:44:38.379Z,68.97
2018-02-27T16:47:04.895Z,58.07
2018-02-27T16:49:31.237Z,7.33
2018-02-27T16:51:57.625Z,183.17
2018-02-27T16:54:24.080Z,122.73
2018-02-27T16:56:50.417Z,236.67
2018-02-27T16:59:16.997Z,290.43
2018-02-27T17:01:43.528Z,273.10
2018-02-27T17:04:09.928Z,262.20
2018-02-27T17:06:36.416Z,212.07
2018-02-27T17:09:03.050Z,120.07
2018-02-27T17:11:29.398Z,284.97
2018-02-27T17:13:55.769Z,309.83
2018-02-27T17:16:23.177Z,169.23
2018-02-27T17:18:49.560Z,230.83
2018-02-27T17:21:16.780Z,82.70
2018-02-27T17:23:43.625Z,218.50
2018-02-27T17:26:10.157Z,121.63
2018-02-27T17:28:36.530Z,44.63
2018-02-27T17:31:03.298Z,37.73
2018-02-27T17:33:30.418Z,12.00
2018-02-27T17:35:57.219Z,23.30
2018-02-27T17:38:24.049Z,2.30
2018-02-27T17:40:51.128Z,24.27
2018-02-27T17:43:17.476Z,7.17
2018-02-27T17:45:44.247Z,15.10
2018-02-27T17:48:10.597Z,175.83
2018-02-27T17:50:37.711Z,37.73
2018-02-27T17:53:04.195Z,4.93
2018-02-27T17:55:31.576Z,18.67
2018-02-27T17:57:57.983Z,86.00
2018-02-27T18:00:24.914Z,123.97
2018-02-27T18:02:51.762Z,57.63
2018-02-27T18:05:18.356Z,87.83
2018-02-27T18:07:44.700Z,322.17
2018-02-27T18:10:11.175Z,100.30
2018-02-27T18:12:37.806Z,31.33
2018-02-27T18:15:04.168Z,71.73
2018-02-27T18:17:31.568Z,128.40
2018-02-27T18:19:59.034Z,87.33
2018-02-27T18:22:26.166Z,52.23
2018-02-27T18:24:52.938Z,2.50
2018-02-27T18:27:19.781Z,24.33
2018-02-27T18:29:46.212Z,19.83
2018-02-27T18:32:13.312Z,8.57
2018-02-27T18:34:40.286Z,2.00
2018-02-27T18:37:07.422Z,5.27
2018-02-27T18:39:33.760Z,75.33
2018-02-27T18:42:00.234Z,154.03
2018-02-27T18:44:26.810Z,74.40
2018-02-27T18:46:53.665Z,43.00
2018-02-27T18:49:20.078Z,11.63
2018-02-27T18:51:47.163Z,3.00
2018-02-27T18:54:13.743Z,11.30
2018-02-27T18:56:40.110Z,1.60
2018-02-27T18:59:07.210Z,6.63
2018-02-27T19:01:33.766Z,5.90
2018-02-27T19:04:00.129Z,10.50
2018-02-27T19:06:26.524Z,5.07
2018-02-27T19:08:53.090Z,47.57
2018-02-27T19:11:19.752Z,39.77
2018-02-27T19:13:47.588Z,11.90
2018-02-27T19:16:13.937Z,75.17
2018-02-27T19:18:40.302Z,32.00
2018-02-27T19:21:07.521Z,183.57
2018-02-27T19:23:33.868Z,29.37
2018-02-27T19:26:00.270Z,40.53
2018-02-27T19:28:26.720Z,97.40
2018-02-27T19:30:53.337Z,145.20
2018-02-27T19:33:19.712Z,54.60
2018-02-27T19:35:46.256Z,14.97
2018-02-27T19:38:13.227Z,74.27
2018-02-27T19:40:39.679Z,47.60
2018-02-27T19:43:06.255Z,24.27
2018-02-27T19:45:32.608Z,14.77
2018-02-27T19:47:59.190Z,43.27
2018-02-27T19:50:25.677Z,10.60
2018-02-27T19:52:52.029Z,15.20
2018-02-27T19:55:18.594Z,23.77
2018-02-27T19:57:45.319Z,12.83
2018-02-27T20:00:11.813Z,7.60
2018-02-27T20:02:38.921Z,5.40
2018-02-27T20:05:05.416Z,5.97
2018-02-27T20:07:31.757Z,47.37
2018-02-27T20:09:58.171Z,80.47
2018-02-27T20:12:24.806Z,35.90
2018-02-27T20:14:51.932Z,4.83
2018-02-27T20:17:18.283Z,4.70
2018-02-27T20:19:44.644Z,38.70
2018-02-27T20:22:11.966Z,13.53
2018-02-27T20:24:38.595Z,56.40
2018-02-27T20:27:04.991Z,232.47
2018-02-27T20:29:32.608Z,168.60
2018-02-27T20:31:58.952Z,197.70
2018-02-27T20:34:32.458Z,85.13
2018-02-27T20:36:59.194Z,53.77
2018-02-27T20:39:25.573Z,35.57
2018-02-27T20:41:52.665Z,196.67
2018-02-27T20:44:19.231Z,9.40
2018-02-27T20:46:45.824Z,31.97
2018-02-27T20:49:12.937Z,76.73
2018-02-27T20:51:39.461Z,33.37
2018-02-27T20:54:05.894Z,36.23
2018-02-27T20:56:32.530Z,107.10
2018-02-27T20:58:59.005Z,51.20
2018-02-27T21:01:25.364Z,40.33
2018-02-27T21:03:52.482Z,29.80
2018-02-27T21:06:18.964Z,13.70
2018-02-27T21:08:45.375Z,59.40
2018-02-27T21:11:11.763Z,61.57
2018-02-27T21:13:38.532Z,78.87
2018-02-27T21:16:04.919Z,148.60
2018-02-27T21:18:32.068Z,209.30
2018-02-27T21:20:58.727Z,57.57
2018-02-27T21:23:25.416Z,153.97
2018-02-27T21:25:51.761Z,152.73
2018-02-27T21:28:18.689Z,233.47
2018-02-27T21:30:45.055Z,204.47
2018-02-27T21:33:11.414Z,219.37
2018-02-27T21:35:37.957Z,237.43
2018-02-27T21:38:04.319Z,274.00
2018-02-27T21:40:31.316Z,176.57
2018-02-27T21:42:57.687Z,120.63
2018-02-27T21:45:24.789Z,173.50
2018-02-27T21:47:51.581Z,109.97
2018-02-27T21:50:18.159Z,347.83
2018-02-27T21:52:44.511Z,312.47
2018-02-27T21:55:10.984Z,340.27
2018-02-27T21:57:38.796Z,174.17
2018-02-27T22:00:05.422Z,249.23
2018-02-27T22:02:32.646Z,295.83
2018-02-27T22:04:59.573Z,83.07
2018-02-27T22:07:25.939Z,51.07
2018-02-27T22:09:52.780Z,94.13
2018-02-27T22:12:19.117Z,54.07
2018-02-27T22:14:45.476Z,15.93
2018-02-27T22:17:11.920Z,37.20
2018-02-27T22:19:39.651Z,2.57
2018-02-27T22:22:06.421Z,5.37
2018-02-27T22:24:32.889Z,2.60
2018-02-27T22:26:59.225Z,3.43
2018-02-27T22:29:26.304Z,2.70
2018-02-27T22:31:52.873Z,2.63
2018-02-27T22:34:19.229Z,2.00
2018-02-27T22:36:45.565Z,2.07
2018-02-27T22:39:12.008Z,2.30
2018-02-27T22:41:45.328Z,1.90
2018-02-27T22:44:12.028Z,2.07
2018-02-27T22:46:38.404Z,2.63
2018-02-27T22:49:05.549Z,2.20
2018-02-27T22:51:32.078Z,2.00
2018-02-27T22:53:58.828Z,2.17
2018-02-27T22:56:25.575Z,2.30
2018-02-27T22:58:52.085Z,2.73
2018-02-27T23:01:18.428Z,2.10
2018-02-27T23:03:44.970Z,2.00
2018-02-27T23:06:11.330Z,2.30
2018-02-27T23:08:38.649Z,2.20
2018-02-27T23:11:05.097Z,2.40
2018-02-27T23:13:31.437Z,2.30
2018-02-27T23:15:57.799Z,2.73
2018-02-27T23:18:24.945Z,2.23
2018-02-27T23:20:51.292Z,2.30
2018-02-27T23:23:18.140Z,2.57
2018-02-27T23:25:50.940Z,2.87
2018-02-27T23:28:22.044Z,2.63
2018-02-27T23:30:48.825Z,2.50
2018-02-27T23:33:22.526Z,2.60
2018-02-27T23:35:48.982Z,2.40
2018-02-27T23:38:15.340Z,3.20
2018-02-27T23:40:42.128Z,2.63
2018-02-27T23:43:08.481Z,2.67
2018-02-27T23:45:35.588Z,2.97
2018-02-27T23:48:02.151Z,2.87
2018-02-27T23:50:28.621Z,2.20
2018-02-27T23:52:55.976Z,2.60
2018-02-27T23:55:22.596Z,2.30
2018-02-27T23:57:48.934Z,2.80
